Time;durP1;ratioP1;P1;durP2;ratioP2;P2;SDS_P1;SDS_P2;PMS_P1;PMS_P2;Temp;Humidity;BMP_temperature;BMP_pressure;BME280_temperature;BME280_humidity;BME280_pressure;Samples;Min_cycle;Max_cycle;Signal;HPM_P1;HPM_P2
2023/04/21 00:01:02;;;;;;;17.07;10.47;;;9.00;99.90;;;;;;5053480;28;20728;-70
2023/04/21 00:03:28;;;;;;;12.57;8.63;;;9.00;99.90;;;;;;5053358;28;20929;-71
2023/04/21 00:05:57;;;;;;;12.93;9.33;;;9.00;99.90;;;;;;5053277;28;20421;-70
2023/04/21 00:08:25;;;;;;;14.67;9.93;;;9.00;99.90;;;;;;5053020;28;20762;-72
2023/04/21 00:10:50;;;;;;;14.00;10.70;;;9.00;99.90;;;;;;5053429;28;20494;-71
2023/04/21 00:13:16;;;;;;;13.10;10.17;;;9.00;99.90;;;;;;5053246;28;20449;-71
2023/04/21 00:15:41;;;;;;;12.80;9.63;;;9.00;99.90;;;;;;5051931;28;20735;-73
2023/04/21 00:18:08;;;;;;;10.87;9.50;;;9.00;99.90;;;;;;5052931;28;20173;-72
2023/04/21 00:20:34;;;;;;;13.57;9.63;;;9.00;99.90;;;;;;5053034;28;20195;-73
2023/04/21 00:22:59;;;;;;;14.57;11.10;;;9.10;99.90;;;;;;5052029;28;20994;-72
2023/04/21 00:25:26;;;;;;;13.37;10.20;;;9.00;99.90;;;;;;5053061;28;20215;-72
2023/04/21 00:27:51;;;;;;;14.77;11.27;;;9.00;99.90;;;;;;5052660;28;20174;-72
2023/04/21 00:30:17;;;;;;;14.40;10.13;;;9.00;99.90;;;;;;5052979;28;20400;-71
2023/04/21 00:32:43;;;;;;;17.77;11.70;;;9.00;99.90;;;;;;5052935;28;20822;-71
2023/04/21 00:35:09;;;;;;;14.37;10.90;;;9.00;99.90;;;;;;5052855;28;20589;-73
2023/04/21 00:37:35;;;;;;;14.80;10.80;;;9.00;99.90;;;;;;5051103;28;20451;-71
2023/04/21 00:40:01;;;;;;;16.50;12.70;;;9.00;99.90;;;;;;5052739;28;20449;-70
2023/04/21 00:42:26;;;;;;;18.30;11.13;;;9.00;99.90;;;;;;5052658;28;20246;-71
2023/04/21 00:44:52;;;;;;;15.70;11.20;;;9.00;99.90;;;;;;5051343;28;20194;-72
2023/04/21 00:47:18;;;;;;;15.20;11.13;;;9.00;99.90;;;;;;5052362;28;20163;-71
2023/04/21 00:49:44;;;;;;;16.17;12.00;;;9.00;99.90;;;;;;5052461;28;20164;-72
2023/04/21 00:52:10;;;;;;;16.90;11.47;;;9.00;99.90;;;;;;5051238;28;20856;-70
2023/04/21 00:54:36;;;;;;;14.37;10.87;;;9.00;99.90;;;;;;5052394;28;20475;-71
2023/04/21 00:57:02;;;;;;;17.03;12.33;;;9.00;99.90;;;;;;5052215;28;20393;-71
2023/04/21 00:59:29;;;;;;;22.60;13.27;;;9.00;99.90;;;;;;5052476;28;20186;-71
2023/04/21 01:01:54;;;;;;;17.97;11.60;;;9.00;99.90;;;;;;5052326;28;20415;-71
2023/04/21 01:04:20;;;;;;;17.73;12.13;;;9.00;99.90;;;;;;5051421;28;20492;-71
2023/04/21 01:06:46;;;;;;;17.17;13.20;;;9.00;99.90;;;;;;5052607;28;20302;-71
2023/04/21 01:09:12;;;;;;;19.00;13.20;;;9.00;99.90;;;;;;5052117;28;20209;-71
2023/04/21 01:11:37;;;;;;;18.23;13.90;;;9.00;99.90;;;;;;5052225;28;20209;-71
2023/04/21 01:14:04;;;;;;;15.80;12.50;;;9.00;99.90;;;;;;5052145;28;20429;-71
2023/04/21 01:16:32;;;;;;;19.33;12.17;;;9.00;99.90;;;;;;5052220;28;20528;-72
2023/04/21 01:18:58;;;;;;;18.20;12.97;;;9.00;99.90;;;;;;5051761;28;20401;-72
2023/04/21 01:21:25;;;;;;;21.93;12.67;;;9.10;99.90;;;;;;5052071;28;20888;-72
2023/04/21 01:23:52;;;;;;;19.50;12.70;;;9.10;99.90;;;;;;5050674;28;20413;-72
2023/04/21 01:26:20;;;;;;;19.00;12.40;;;9.10;99.90;;;;;;5051960;28;20418;-71
2023/04/21 01:28:47;;;;;;;16.83;11.77;;;9.10;99.90;;;;;;5051663;28;20454;-71
2023/04/21 01:31:17;;;;;;;17.93;13.63;;;9.10;99.90;;;;;;5051947;28;20410;-71
2023/04/21 01:33:43;;;;;;;12.80;10.57;;;9.20;99.90;;;;;;5050643;28;21087;-74
2023/04/21 01:36:09;;;;;;;18.10;12.57;;;9.20;99.90;;;;;;5050585;28;20422;-73
2023/04/21 01:38:39;;;;;;;19.57;12.70;;;9.20;99.90;;;;;;5051636;28;20402;-72
2023/04/21 01:41:05;;;;;;;19.47;14.60;;;9.20;99.90;;;;;;5051854;28;20452;-72
2023/04/21 01:43:30;;;;;;;21.33;14.07;;;9.20;99.90;;;;;;5051999;28;20442;-72
2023/04/21 01:45:56;;;;;;;16.37;13.40;;;9.20;99.90;;;;;;5051859;28;20651;-73
2023/04/21 01:48:21;;;;;;;17.63;12.53;;;9.20;99.90;;;;;;5051723;28;20572;-73
2023/04/21 01:50:47;;;;;;;18.90;11.93;;;9.20;99.90;;;;;;5050735;28;20171;-73
2023/04/21 01:53:12;;;;;;;15.13;12.50;;;9.20;99.90;;;;;;5051908;28;20237;-73
2023/04/21 01:55:38;;;;;;;15.37;12.03;;;9.20;99.90;;;;;;5051652;28;20608;-73
2023/04/21 01:58:03;;;;;;;20.03;13.87;;;9.20;99.90;;;;;;5050293;28;20544;-72
2023/04/21 02:00:29;;;;;;;19.90;12.67;;;9.30;99.90;;;;;;5051635;28;20191;-73
2023/04/21 02:02:54;;;;;;;17.17;12.80;;;9.30;99.90;;;;;;5051764;28;20174;-72
2023/04/21 02:05:20;;;;;;;16.40;12.90;;;9.30;99.90;;;;;;5051553;28;20189;-72
2023/04/21 02:07:45;;;;;;;16.83;12.80;;;9.30;99.90;;;;;;5050040;28;20193;-72
2023/04/21 02:10:11;;;;;;;19.10;13.47;;;9.30;99.90;;;;;;5050506;28;20179;-72
2023/04/21 02:12:37;;;;;;;17.87;12.53;;;9.20;99.90;;;;;;5051593;28;20274;-71
2023/04/21 02:15:04;;;;;;;16.53;12.60;;;9.20;99.90;;;;;;5052063;28;20433;-71
2023/04/21 02:17:30;;;;;;;17.30;11.90;;;9.20;99.90;;;;;;5055126;28;20175;-72
2023/04/21 02:19:56;;;;;;;21.70;13.10;;;9.10;99.90;;;;;;5055280;28;20456;-71
2023/04/21 02:22:22;;;;;;;14.10;11.63;;;9.10;99.90;;;;;;5055413;28;20406;-71
2023/04/21 02:24:48;;;;;;;17.50;12.87;;;9.00;99.90;;;;;;5055360;28;20671;-73
2023/04/21 02:27:13;;;;;;;18.63;13.67;;;8.90;99.90;;;;;;5055062;28;20415;-71
2023/04/21 02:29:39;;;;;;;15.27;10.17;;;8.80;99.90;;;;;;5055301;28;20409;-71
2023/04/21 02:32:05;;;;;;;13.33;10.17;;;8.80;99.90;;;;;;5055185;28;20222;-71
2023/04/21 02:34:30;;;;;;;18.80;11.67;;;8.70;99.90;;;;;;5055084;28;20413;-71
2023/04/21 02:36:56;;;;;;;16.47;11.83;;;8.60;99.90;;;;;;5054793;28;20217;-70
2023/04/21 02:39:22;;;;;;;15.67;11.20;;;8.50;99.90;;;;;;5055084;28;20167;-70
2023/04/21 02:41:47;;;;;;;16.93;12.33;;;8.30;99.90;;;;;;5054997;28;20449;-71
2023/04/21 02:44:12;;;;;;;19.90;15.73;;;8.20;99.90;;;;;;5054996;28;20247;-70
2023/04/21 02:46:42;;;;;;;14.03;11.20;;;8.10;99.90;;;;;;5054860;28;20216;-71
2023/04/21 02:49:08;;;;;;;19.10;12.07;;;8.00;99.90;;;;;;5054565;28;20199;-71
2023/04/21 02:51:34;;;;;;;19.13;11.57;;;7.90;99.90;;;;;;5053514;28;20445;-70
2023/04/21 02:53:59;;;;;;;16.47;12.40;;;7.80;99.90;;;;;;5053621;28;20819;-71
2023/04/21 02:56:25;;;;;;;16.83;11.23;;;7.70;99.90;;;;;;5054706;28;20187;-71
2023/04/21 02:58:50;;;;;;;19.20;11.40;;;7.70;99.90;;;;;;5054369;28;20536;-71
2023/04/21 03:01:16;;;;;;;19.30;11.97;;;7.60;99.90;;;;;;5054593;28;20309;-70
2023/04/21 03:03:41;;;;;;;18.30;11.87;;;7.50;99.90;;;;;;5054553;28;20164;-71
2023/04/21 03:06:07;;;;;;;16.93;11.13;;;7.50;99.90;;;;;;5053209;28;20186;-72
2023/04/21 03:08:32;;;;;;;16.00;12.57;;;7.40;99.90;;;;;;5054269;28;20163;-70
2023/04/21 03:10:59;;;;;;;14.50;11.50;;;7.30;99.90;;;;;;5054525;28;20213;-70
2023/04/21 03:13:25;;;;;;;16.17;11.50;;;7.30;99.90;;;;;;5053120;28;20223;-71
2023/04/21 03:15:51;;;;;;;18.00;11.13;;;7.20;99.90;;;;;;5053123;28;21085;-70
2023/04/21 03:18:16;;;;;;;19.90;13.20;;;7.20;99.90;;;;;;5053990;28;20167;-71
2023/04/21 03:20:42;;;;;;;14.43;11.93;;;7.10;99.90;;;;;;5054244;28;20973;-71
2023/04/21 03:23:08;;;;;;;13.43;9.83;;;7.10;99.90;;;;;;5054350;28;20159;-70
2023/04/21 03:25:34;;;;;;;13.27;9.03;;;7.00;99.90;;;;;;5053116;28;20433;-70
2023/04/21 03:28:00;;;;;;;12.87;9.70;;;7.00;99.90;;;;;;5052872;28;20163;-71
2023/04/21 03:30:25;;;;;;;14.60;9.23;;;6.90;99.90;;;;;;5054142;28;20649;-70
2023/04/21 03:32:51;;;;;;;15.70;10.43;;;6.90;99.90;;;;;;5054076;28;20174;-70
2023/04/21 03:35:17;;;;;;;12.77;9.07;;;6.80;99.90;;;;;;5052685;28;20194;-70
2023/04/21 03:37:42;;;;;;;13.23;9.57;;;6.80;99.90;;;;;;5052309;28;20175;-70
2023/04/21 03:40:09;;;;;;;12.30;9.67;;;6.80;99.90;;;;;;5053841;28;20191;-71
2023/04/21 03:42:35;;;;;;;13.07;9.33;;;6.80;99.90;;;;;;5053872;28;20167;-70
2023/04/21 03:45:05;;;;;;;16.60;10.73;;;6.70;99.90;;;;;;5053845;28;20482;-70
2023/04/21 03:47:30;;;;;;;12.67;8.47;;;6.70;99.90;;;;;;5053491;28;20170;-70
2023/04/21 03:49:56;;;;;;;14.83;10.30;;;6.70;99.90;;;;;;5053698;28;20405;-72
2023/04/21 03:52:22;;;;;;;14.37;9.73;;;6.60;99.90;;;;;;5052426;28;20213;-71
2023/04/21 03:54:48;;;;;;;12.50;8.83;;;6.60;99.90;;;;;;5052300;28;20198;-71
2023/04/21 03:57:13;;;;;;;11.10;8.47;;;6.50;99.90;;;;;;5053325;28;20175;-72
2023/04/21 03:59:38;;;;;;;11.43;8.80;;;6.50;99.90;;;;;;5053366;28;20167;-70
2023/04/21 04:02:04;;;;;;;12.80;8.70;;;6.40;99.90;;;;;;5053606;28;20163;-70
2023/04/21 04:04:30;;;;;;;14.23;10.00;;;6.40;99.90;;;;;;5053405;28;20748;-71
2023/04/21 04:06:56;;;;;;;18.90;12.70;;;6.30;99.90;;;;;;5051920;28;20167;-71
2023/04/21 04:09:22;;;;;;;14.30;10.10;;;6.30;99.90;;;;;;5053359;28;20170;-71
2023/04/21 04:11:47;;;;;;;20.73;11.80;;;6.30;99.90;;;;;;5053272;28;20409;-71
2023/04/21 04:14:13;;;;;;;13.50;10.10;;;6.20;99.90;;;;;;5051885;28;20185;-71
2023/04/21 04:16:38;;;;;;;14.80;11.73;;;6.20;99.90;;;;;;5051918;28;20228;-70
2023/04/21 04:19:04;;;;;;;16.23;9.90;;;6.20;99.90;;;;;;5052828;28;20209;-71
2023/04/21 04:21:31;;;;;;;11.77;8.70;;;6.20;99.90;;;;;;5053064;28;20191;-71
2023/04/21 04:23:57;;;;;;;16.07;10.73;;;6.10;99.90;;;;;;5053107;28;20562;-70
2023/04/21 04:26:24;;;;;;;17.37;10.90;;;6.10;99.90;;;;;;5052898;28;20455;-71
2023/04/21 04:28:55;;;;;;;15.30;10.70;;;6.10;99.90;;;;;;5052696;28;20402;-72
2023/04/21 04:31:24;;;;;;;12.90;9.37;;;6.10;99.90;;;;;;5052956;28;20405;-70
2023/04/21 04:33:50;;;;;;;14.67;10.60;;;6.10;99.90;;;;;;5052867;28;20413;-71
2023/04/21 04:36:15;;;;;;;13.60;9.07;;;6.10;99.90;;;;;;5051522;28;20437;-71
2023/04/21 04:38:41;;;;;;;15.90;10.33;;;6.10;99.90;;;;;;5051140;28;20470;-71
2023/04/21 04:41:07;;;;;;;14.40;12.03;;;6.10;99.90;;;;;;5052630;28;20187;-71
2023/04/21 04:43:35;;;;;;;14.10;9.83;;;6.10;99.90;;;;;;5051408;28;20254;-71
2023/04/21 04:46:01;;;;;;;16.80;12.03;;;6.10;99.90;;;;;;5052499;28;20422;-70
2023/04/21 04:48:27;;;;;;;15.60;11.77;;;6.20;99.90;;;;;;5052323;28;20400;-70
2023/04/21 04:50:52;;;;;;;15.07;11.33;;;6.20;99.90;;;;;;5051263;28;20918;-70
2023/04/21 04:53:18;;;;;;;17.30;11.80;;;6.20;99.90;;;;;;5051185;28;20163;-72
2023/04/21 04:55:43;;;;;;;17.00;11.47;;;6.30;99.90;;;;;;5051048;28;20191;-70
2023/04/21 04:58:09;;;;;;;22.23;11.53;;;6.40;99.90;;;;;;5050889;28;20263;-71
2023/04/21 05:00:35;;;;;;;14.77;11.33;;;6.50;99.90;;;;;;5052311;28;20585;-73
2023/04/21 05:03:01;;;;;;;19.50;10.77;;;6.50;99.90;;;;;;5051003;28;20170;-71
2023/04/21 05:05:26;;;;;;;15.80;10.97;;;6.60;99.90;;;;;;5050963;28;20434;-71
2023/04/21 05:07:52;;;;;;;12.23;9.50;;;6.70;99.90;;;;;;5050652;28;20270;-73
2023/04/21 05:10:18;;;;;;;15.30;10.27;;;6.80;99.90;;;;;;5052275;28;20717;-70
2023/04/21 05:12:43;;;;;;;16.37;11.43;;;6.80;99.90;;;;;;5050927;28;20285;-70
2023/04/21 05:15:10;;;;;;;16.00;10.83;;;6.90;99.90;;;;;;5050792;28;20191;-71
2023/04/21 05:17:35;;;;;;;18.10;10.03;;;6.90;99.90;;;;;;5050463;28;20167;-70
2023/04/21 05:20:03;;;;;;;15.03;10.63;;;7.00;99.90;;;;;;5051925;28;20460;-71
2023/04/21 05:22:28;;;;;;;13.37;9.83;;;7.00;99.90;;;;;;5050641;28;20166;-73
2023/04/21 05:24:54;;;;;;;11.37;9.00;;;7.10;99.90;;;;;;5051922;28;20462;-71
2023/04/21 05:27:19;;;;;;;16.67;11.13;;;7.10;99.90;;;;;;5051685;28;20159;-71
2023/04/21 05:29:45;;;;;;;16.63;10.87;;;7.20;99.90;;;;;;5052012;28;20677;-72
2023/04/21 05:32:11;;;;;;;17.13;12.03;;;7.20;99.90;;;;;;5050680;28;20171;-74
2023/04/21 05:34:37;;;;;;;21.13;12.70;;;7.40;99.90;;;;;;5050356;28;20568;-71
2023/04/21 05:37:03;;;;;;;16.97;12.27;;;7.60;99.90;;;;;;5050280;28;20163;-74
2023/04/21 05:39:29;;;;;;;16.97;12.60;;;7.80;99.90;;;;;;5052109;28;20456;-71
2023/04/21 05:41:54;;;;;;;16.97;11.93;;;8.10;99.90;;;;;;5050603;28;20271;-71
2023/04/21 05:44:20;;;;;;;15.43;11.97;;;8.30;99.90;;;;;;5052018;28;20409;-69
2023/04/21 05:46:46;;;;;;;14.10;11.80;;;8.50;99.90;;;;;;5051693;28;20682;-70
2023/04/21 05:49:11;;;;;;;19.53;11.67;;;8.80;99.90;;;;;;5050398;28;20171;-71
2023/04/21 05:51:37;;;;;;;20.90;13.97;;;9.00;99.90;;;;;;5055002;28;20262;-70
2023/04/21 05:54:02;;;;;;;17.50;12.00;;;9.30;99.90;;;;;;5054714;28;20197;-70
2023/04/21 05:56:28;;;;;;;17.07;11.47;;;9.60;99.90;;;;;;5055219;28;20183;-70
2023/04/21 05:58:53;;;;;;;16.97;11.40;;;9.80;99.90;;;;;;5055522;28;20185;-72
2023/04/21 06:01:19;;;;;;;18.63;12.73;;;10.10;99.90;;;;;;5055808;28;20190;-70
2023/04/21 06:03:47;;;;;;;20.27;12.30;;;10.40;99.90;;;;;;5054541;28;20253;-70
2023/04/21 06:06:13;;;;;;;19.63;13.83;;;10.70;99.90;;;;;;5054302;28;20212;-70
2023/04/21 06:08:39;;;;;;;14.73;11.80;;;10.80;99.90;;;;;;5054334;28;20404;-70
2023/04/21 06:11:05;;;;;;;16.93;12.77;;;11.10;99.90;;;;;;5054298;28;20508;-70
2023/04/21 06:13:30;;;;;;;19.87;14.07;;;11.50;99.90;;;;;;5054176;28;20190;-71
2023/04/21 06:15:56;;;;;;;20.10;14.10;;;11.80;99.90;;;;;;5055421;28;20190;-72
2023/04/21 06:18:22;;;;;;;18.53;12.90;;;12.30;99.90;;;;;;5053857;28;20174;-71
2023/04/21 06:20:52;;;;;;;12.47;10.70;;;12.90;99.90;;;;;;5055336;28;20274;-70
2023/04/21 06:23:18;;;;;;;16.53;12.23;;;13.30;99.90;;;;;;5054343;28;20429;-70
2023/04/21 06:25:44;;;;;;;16.03;11.80;;;13.60;99.90;;;;;;5055356;28;20965;-69
2023/04/21 06:28:09;;;;;;;13.37;10.70;;;13.80;99.90;;;;;;5055016;28;20520;-68
2023/04/21 06:30:35;;;;;;;12.33;11.00;;;13.80;99.90;;;;;;5055234;28;20166;-70
2023/04/21 06:33:01;;;;;;;14.40;11.50;;;13.60;99.90;;;;;;5055231;28;20229;-70
2023/04/21 06:35:26;;;;;;;16.70;11.87;;;13.50;99.90;;;;;;5055088;28;20714;-71
2023/04/21 06:37:52;;;;;;;14.97;10.90;;;13.70;99.90;;;;;;5054851;28;20203;-70
2023/04/21 06:40:17;;;;;;;12.87;10.97;;;14.00;99.90;;;;;;5053750;28;20199;-70
2023/04/21 06:42:43;;;;;;;14.77;11.40;;;14.10;99.90;;;;;;5053474;28;20163;-70
2023/04/21 06:45:09;;;;;;;17.83;11.57;;;14.30;99.90;;;;;;5054884;28;20538;-69
2023/04/21 06:47:34;;;;;;;10.20;9.07;;;14.40;99.90;;;;;;5053429;28;20171;-71
2023/04/21 06:50:00;;;;;;;14.70;10.70;;;14.60;99.90;;;;;;5054819;28;20962;-69
2023/04/21 06:52:25;;;;;;;15.53;12.67;;;14.60;99.90;;;;;;5053531;28;20777;-71
2023/04/21 06:54:51;;;;;;;19.73;13.83;;;14.40;99.90;;;;;;5053426;28;20218;-70
2023/04/21 06:57:16;;;;;;;13.97;11.27;;;14.20;99.90;;;;;;5054485;28;20513;-69
2023/04/21 06:59:42;;;;;;;17.73;13.43;;;14.00;99.90;;;;;;5053263;28;20797;-70
2023/04/21 07:02:08;;;;;;;16.70;13.57;;;13.90;99.90;;;;;;5052025;28;20171;-70
2023/04/21 07:04:34;;;;;;;17.50;12.83;;;14.00;99.90;;;;;;5053120;28;20187;-70
2023/04/21 07:06:59;;;;;;;16.03;13.50;;;14.20;99.90;;;;;;5052993;28;20163;-70
2023/04/21 07:09:27;;;;;;;15.37;11.80;;;15.30;99.90;;;;;;5053440;28;20160;-70
2023/04/21 07:11:53;;;;;;;13.37;11.40;;;16.80;99.90;;;;;;5053055;28;20198;-70
2023/04/21 07:14:19;;;;;;;12.97;11.63;;;18.40;99.90;;;;;;5053035;28;20779;-70
2023/04/21 07:16:44;;;;;;;12.77;10.50;;;20.10;99.90;;;;;;5054315;28;20496;-70
2023/04/21 07:19:10;;;;;;;12.30;10.83;;;21.50;98.90;;;;;;5053994;28;20171;-70
2023/04/21 07:21:35;;;;;;;12.10;10.30;;;22.10;76.60;;;;;;5053251;28;20199;-69
2023/04/21 07:24:02;;;;;;;14.87;11.53;;;22.70;67.50;;;;;;5054445;28;20650;-68
2023/04/21 07:26:28;;;;;;;10.30;9.27;;;23.70;63.20;;;;;;5054128;28;20191;-70
2023/04/21 07:28:57;;;;;;;11.30;10.07;;;24.60;57.40;;;;;;5053876;28;20410;-69
2023/04/21 07:31:22;;;;;;;11.47;10.00;;;25.40;55.00;;;;;;5054103;28;20535;-69
2023/04/21 07:33:48;;;;;;;10.67;9.57;;;25.80;52.80;;;;;;5054024;28;20419;-69
2023/04/21 07:36:14;;;;;;;13.60;12.30;;;26.00;50.50;;;;;;5052754;28;20210;-69
2023/04/21 07:38:42;;;;;;;12.90;11.17;;;26.10;48.70;;;;;;5053790;28;20193;-69
2023/04/21 07:41:11;;;;;;;10.90;9.80;;;25.80;48.40;;;;;;5053829;28;20457;-69
2023/04/21 07:43:37;;;;;;;14.20;12.83;;;26.40;49.90;;;;;;5053902;28;20781;-70
2023/04/21 07:46:02;;;;;;;12.20;10.33;;;26.80;47.30;;;;;;5053754;28;20417;-70
2023/04/21 07:48:28;;;;;;;12.73;11.43;;;27.20;47.50;;;;;;5052140;28;20463;-69
2023/04/21 07:50:53;;;;;;;13.10;11.57;;;27.20;45.20;;;;;;5053777;28;20170;-69
2023/04/21 07:53:19;;;;;;;13.70;12.23;;;26.80;44.10;;;;;;5053646;28;20644;-69
2023/04/21 07:55:44;;;;;;;12.97;11.50;;;25.60;44.90;;;;;;5053589;28;20183;-70
2023/04/21 07:58:10;;;;;;;11.90;10.73;;;24.30;46.70;;;;;;5053286;28;20194;-69
2023/04/21 08:00:36;;;;;;;14.53;12.90;;;23.30;49.20;;;;;;5053528;28;20737;-69
2023/04/21 08:03:01;;;;;;;15.30;12.77;;;22.60;50.20;;;;;;5052223;28;20205;-69
2023/04/21 08:05:27;;;;;;;16.17;13.37;;;21.60;50.60;;;;;;5052135;28;20182;-70
2023/04/21 08:07:53;;;;;;;13.97;12.50;;;20.50;53.20;;;;;;5053366;28;20715;-69
2023/04/21 08:10:19;;;;;;;16.60;12.40;;;19.90;54.20;;;;;;5053268;28;20492;-69
2023/04/21 08:12:44;;;;;;;12.93;11.37;;;19.10;55.70;;;;;;5052577;28;20183;-69
2023/04/21 08:15:11;;;;;;;15.93;12.30;;;18.60;59.40;;;;;;5051916;28;20328;-69
2023/04/21 08:17:37;;;;;;;16.23;13.17;;;18.30;64.10;;;;;;5051653;28;20167;-69
2023/04/21 08:20:04;;;;;;;14.70;11.77;;;18.00;73.80;;;;;;5053122;28;22347;-70
2023/04/21 08:22:30;;;;;;;15.50;11.50;;;18.10;92.40;;;;;;5053140;28;20410;-71
2023/04/21 08:24:55;;;;;;;13.47;10.87;;;18.50;92.30;;;;;;5053019;28;20450;-70
2023/04/21 08:27:21;;;;;;;13.03;9.60;;;19.30;90.10;;;;;;5052728;28;20414;-72
2023/04/21 08:29:48;;;;;;;14.40;10.70;;;20.30;84.60;;;;;;5052961;28;20798;-70
2023/04/21 08:32:14;;;;;;;13.27;10.63;;;21.30;75.70;;;;;;5052920;28;20179;-70
2023/04/21 08:34:40;;;;;;;9.30;8.40;;;22.30;66.60;;;;;;5052788;28;20421;-70
2023/04/21 08:37:05;;;;;;;11.80;10.27;;;23.70;64.50;;;;;;5052588;28;20163;-70
2023/04/21 08:39:31;;;;;;;10.60;8.30;;;25.10;56.90;;;;;;5052834;28;20245;-70
2023/04/21 08:41:57;;;;;;;9.10;8.20;;;26.80;54.00;;;;;;5052737;28;20198;-70
2023/04/21 08:44:23;;;;;;;9.40;8.47;;;27.50;50.20;;;;;;5052653;28;20711;-70
2023/04/21 08:46:52;;;;;;;11.03;9.93;;;27.70;48.00;;;;;;5052671;28;20488;-70
2023/04/21 08:49:19;;;;;;;12.23;11.03;;;27.50;46.10;;;;;;5052613;28;20258;-70
2023/04/21 08:51:46;;;;;;;10.90;9.53;;;27.80;45.50;;;;;;5052561;28;20417;-70
2023/04/21 08:54:11;;;;;;;11.70;10.30;;;28.00;46.50;;;;;;5052422;28;20488;-72
2023/04/21 08:56:38;;;;;;;9.80;8.03;;;29.40;46.00;;;;;;5052454;28;20459;-71
2023/04/21 08:59:03;;;;;;;8.53;7.57;;;30.40;43.50;;;;;;5052317;28;20182;-72
2023/04/21 09:01:29;;;;;;;9.37;8.50;;;31.20;41.30;;;;;;5052390;28;20594;-71
2023/04/21 09:04:15;;;;;;;10.10;9.10;;;31.90;40.60;;;;;;5052745;28;20578;-72
2023/04/21 09:06:42;;;;;;;11.57;10.40;;;32.40;38.70;;;;;;5052346;28;20158;-72
2023/04/21 09:09:07;;;;;;;9.23;8.43;;;31.20;37.80;;;;;;5052052;28;20397;-72
2023/04/21 09:11:33;;;;;;;9.63;8.70;;;31.20;39.50;;;;;;5052420;28;20413;-70
2023/04/21 09:13:59;;;;;;;8.90;8.10;;;31.90;38.20;;;;;;5052275;28;20270;-70
2023/04/21 09:16:31;;;;;;;8.90;8.13;;;32.60;37.60;;;;;;5050966;28;20244;-70
2023/04/21 09:19:00;;;;;;;11.10;10.00;;;33.60;37.80;;;;;;5052008;28;20304;-72
2023/04/21 09:21:30;;;;;;;8.87;8.07;;;32.70;35.40;;;;;;5051997;28;20857;-70
2023/04/21 09:23:56;;;;;;;9.40;8.10;;;33.60;36.10;;;;;;5052079;28;20409;-70
2023/04/21 09:26:21;;;;;;;8.70;7.90;;;32.80;35.10;;;;;;5049852;28;20455;-71
2023/04/21 09:28:48;;;;;;;10.83;9.73;;;32.80;36.20;;;;;;5051513;28;20169;-71
2023/04/21 09:31:15;;;;;;;10.80;9.80;;;32.20;35.60;;;;;;5051861;28;20167;-71
2023/04/21 09:33:53;;;;;;;11.70;10.50;;;32.30;36.90;;;;;;5051971;28;20403;-72
2023/04/21 09:36:20;;;;;;;12.17;10.00;;;31.80;36.10;;;;;;5052007;28;20436;-71
2023/04/21 09:38:52;;;;;;;10.07;9.17;;;30.70;36.10;;;;;;5051572;28;20498;-70
2023/04/21 09:41:18;;;;;;;11.47;10.37;;;30.60;38.40;;;;;;5051792;28;20962;-70
2023/04/21 09:43:43;;;;;;;10.73;9.80;;;31.30;37.60;;;;;;5051788;28;20404;-70
2023/04/21 09:46:11;;;;;;;11.10;9.90;;;31.80;36.60;;;;;;5051745;28;20552;-70
2023/04/21 09:48:41;;;;;;;9.30;8.40;;;31.40;36.60;;;;;;5051225;28;20159;-70
2023/04/21 09:51:07;;;;;;;11.00;9.90;;;30.20;36.70;;;;;;5051675;28;20405;-70
2023/04/21 09:53:37;;;;;;;11.40;10.17;;;30.00;37.90;;;;;;5051655;28;20440;-70
2023/04/21 09:56:04;;;;;;;9.20;8.30;;;30.20;38.30;;;;;;5051602;28;20948;-71
2023/04/21 09:58:39;;;;;;;10.90;9.83;;;31.00;39.30;;;;;;5050106;28;20508;-70
2023/04/21 10:01:05;;;;;;;10.23;9.17;;;31.90;36.10;;;;;;5051635;28;20574;-70
2023/04/21 10:03:31;;;;;;;9.50;8.60;;;32.80;36.00;;;;;;5051607;28;20401;-70
2023/04/21 10:05:56;;;;;;;10.47;9.40;;;32.60;35.20;;;;;;5051539;28;20918;-70
2023/04/21 10:08:22;;;;;;;13.53;10.57;;;30.80;34.50;;;;;;5051468;28;20216;-70
2023/04/21 10:10:48;;;;;;;11.07;9.93;;;29.40;36.60;;;;;;5051582;28;20191;-69
2023/04/21 10:13:17;;;;;;;10.87;9.77;;;29.60;38.20;;;;;;5051488;28;20659;-71
2023/04/21 10:15:43;;;;;;;10.10;8.60;;;31.20;37.70;;;;;;5051448;28;20425;-71
2023/04/21 10:18:15;;;;;;;10.20;8.97;;;32.40;36.00;;;;;;5051255;28;20406;-71
2023/04/21 10:21:02;;;;;;;9.03;8.10;;;33.30;35.30;;;;;;5051360;28;20198;-72
2023/04/21 10:23:36;;;;;;;8.10;7.30;;;33.90;33.70;;;;;;5051432;28;20470;-70
2023/04/21 10:26:08;;;;;;;9.63;8.70;;;35.00;33.80;;;;;;5051385;28;20413;-70
2023/04/21 10:28:40;;;;;;;8.40;7.50;;;36.50;32.60;;;;;;5051042;28;20413;-70
2023/04/21 10:31:34;;;;;;;9.20;8.37;;;38.20;31.00;;;;;;5051424;28;20433;-69
2023/04/21 10:34:09;;;;;;;9.80;8.37;;;36.90;29.70;;;;;;5051585;28;20460;-70
2023/04/21 10:36:47;;;;;;;11.50;9.43;;;36.30;30.60;;;;;;5052701;28;20766;-70
2023/04/21 10:39:46;;;;;;;9.17;8.27;;;36.50;30.00;;;;;;5055252;28;20415;-71
2023/04/21 10:42:14;;;;;;;8.03;7.33;;;37.30;29.40;;;;;;5055125;28;20455;-72
2023/04/21 10:44:44;;;;;;;10.83;8.43;;;38.20;29.00;;;;;;5054914;28;20857;-70
2023/04/21 10:47:10;;;;;;;7.20;6.60;;;38.10;29.70;;;;;;5053476;28;20409;-70
2023/04/21 10:49:39;;;;;;;7.63;7.00;;;39.30;29.50;;;;;;5054874;28;20436;-71
2023/04/21 10:52:07;;;;;;;9.43;8.40;;;39.70;28.60;;;;;;5054792;28;20173;-69
2023/04/21 10:54:44;;;;;;;6.37;5.87;;;40.40;28.10;;;;;;5054674;28;20429;-69
2023/04/21 10:57:11;;;;;;;7.87;7.10;;;41.20;28.20;;;;;;5054795;28;20484;-69
2023/04/21 10:59:37;;;;;;;9.10;8.20;;;41.90;27.60;;;;;;5054688;28;20405;-70
2023/04/21 11:02:09;;;;;;;10.10;9.30;;;43.10;26.70;;;;;;5053332;28;20460;-71
2023/04/21 11:04:35;;;;;;;8.37;7.60;;;42.90;25.20;;;;;;5054508;28;20433;-71
2023/04/21 11:07:13;;;;;;;10.97;9.87;;;43.20;25.40;;;;;;5054329;28;20380;-71
2023/04/21 11:09:40;;;;;;;9.30;8.50;;;42.70;24.00;;;;;;5054566;28;20246;-71
2023/04/21 11:12:19;;;;;;;9.40;8.60;;;42.70;25.20;;;;;;5054401;28;20437;-70
2023/04/21 11:14:46;;;;;;;9.00;8.30;;;43.90;24.90;;;;;;5054284;28;20403;-71
2023/04/21 11:17:17;;;;;;;8.03;6.97;;;44.90;24.80;;;;;;5054149;28;20467;-72
2023/04/21 11:19:54;;;;;;;7.60;7.00;;;46.00;25.20;;;;;;5054398;28;20372;-71
2023/04/21 11:22:24;;;;;;;7.70;7.10;;;47.60;24.30;;;;;;5054298;28;20364;-71
2023/04/21 11:24:53;;;;;;;7.10;6.60;;;48.40;23.90;;;;;;5054281;28;20919;-71
2023/04/21 11:27:18;;;;;;;7.33;6.63;;;48.10;22.30;;;;;;5053888;28;20364;-71
2023/04/21 11:29:48;;;;;;;7.93;7.30;;;47.00;21.60;;;;;;5054147;28;20384;-70
2023/04/21 11:32:16;;;;;;;8.23;7.63;;;46.00;21.20;;;;;;5054136;28;20195;-71
2023/04/21 11:34:42;;;;;;;6.97;6.47;;;45.00;21.50;;;;;;5054027;28;20709;-71
2023/04/21 11:37:09;;;;;;;7.50;6.90;;;44.60;22.10;;;;;;5053709;28;20387;-71
2023/04/21 11:39:38;;;;;;;7.93;7.20;;;44.90;22.70;;;;;;5053945;28;20216;-69
2023/04/21 11:42:04;;;;;;;6.67;6.17;;;45.30;22.00;;;;;;5053927;28;20380;-69
2023/04/21 11:44:31;;;;;;;7.30;6.70;;;44.90;21.90;;;;;;5053777;28;20469;-69
2023/04/21 11:46:56;;;;;;;7.00;6.40;;;44.50;22.80;;;;;;5053552;28;20167;-71
2023/04/21 11:49:25;;;;;;;6.50;6.00;;;45.00;23.30;;;;;;5053132;28;20700;-71
2023/04/21 11:51:50;;;;;;;7.23;6.60;;;45.30;22.30;;;;;;5053602;28;20285;-71
2023/04/21 11:54:17;;;;;;;7.00;6.40;;;45.40;22.10;;;;;;5053555;28;20491;-72
2023/04/21 11:56:46;;;;;;;7.00;6.50;;;46.10;22.30;;;;;;5053608;28;20190;-70
2023/04/21 11:59:25;;;;;;;8.20;7.40;;;46.10;21.80;;;;;;5053510;28;20404;-71
2023/04/21 12:01:53;;;;;;;7.83;7.10;;;45.00;21.80;;;;;;5053580;28;20405;-71
2023/04/21 12:04:22;;;;;;;7.37;6.77;;;44.00;21.70;;;;;;5052200;28;20984;-71
2023/04/21 12:06:59;;;;;;;7.20;6.50;;;42.80;21.90;;;;;;5053350;28;20402;-71
2023/04/21 12:09:25;;;;;;;7.20;6.60;;;42.60;22.30;;;;;;5053386;28;20401;-71
2023/04/21 12:11:53;;;;;;;7.80;6.77;;;42.10;22.50;;;;;;5053030;28;20454;-69
2023/04/21 12:14:22;;;;;;;5.63;5.23;;;41.20;23.00;;;;;;5053353;28;20932;-69
2023/04/21 12:16:52;;;;;;;5.50;5.00;;;40.30;22.60;;;;;;5053151;28;20376;-70
2023/04/21 12:19:41;;;;;;;6.37;5.77;;;40.50;23.10;;;;;;5053193;28;20397;-70
2023/04/21 12:22:09;;;;;;;6.87;6.27;;;40.40;22.10;;;;;;5052575;28;20392;-69
2023/04/21 12:24:36;;;;;;;5.70;5.30;;;40.80;22.80;;;;;;5052967;28;20396;-69
2023/04/21 12:27:01;;;;;;;5.23;4.83;;;40.70;22.90;;;;;;5052779;28;20383;-70
2023/04/21 12:29:27;;;;;;;6.17;5.67;;;40.40;22.90;;;;;;5052978;28;20376;-70
2023/04/21 12:31:53;;;;;;;5.60;5.17;;;40.90;23.70;;;;;;5051526;28;20252;-70
2023/04/21 12:34:18;;;;;;;5.93;5.37;;;41.40;23.70;;;;;;5053017;28;20241;-70
2023/04/21 12:36:44;;;;;;;7.60;7.00;;;40.50;23.50;;;;;;5051738;28;20705;-69